RKV weather

Reykjavik Airport
Reykjavik, Capital Region, Iceland

Public forecast

Using degrees Celsius for public forecast. Weather courtesy of forecast.io.

METAR (pilot weather report)

Retrieved 2019/03/24 23:00 UTC (32 minutes ago):

BIRK 242300Z 10011KT 9999 FEW040 BKN055 M00/M06 Q1021

TAF (pilot weather forecast)

Retrieved 2019/03/24 21:24 UTC (2 hours ago):

TAF BIRK 241921Z 2421/2521 30008KT 9999 FEW025 BKN035 TX08/2515Z TNM01/2500Z BECMG 2421/2500 13010KT BECMG 2503/2506 10020G30KT 5000 SN BKN012 OVC020 BECMG 2507/2509 9999 RADZ BKN015 OVC025 BECMG 2514/2516 16020G30KT BECMG 2519/2521 22022G32KT SHRA BKN012CB OVC030